createdAt,value
2019-02-08T00:00:22.271Z,2.60
2019-02-08T00:02:54.712Z,2.60
2019-02-08T00:05:25.355Z,2.60
2019-02-08T00:07:55.992Z,2.60
2019-02-08T00:10:27.689Z,2.70
2019-02-08T00:12:58.672Z,2.80
2019-02-08T00:15:29.204Z,2.70
2019-02-08T00:17:59.824Z,2.70
2019-02-08T00:20:30.484Z,2.70
2019-02-08T00:23:01.018Z,2.70
2019-02-08T00:25:31.944Z,2.60
2019-02-08T00:28:03.089Z,2.60
2019-02-08T00:30:33.742Z,2.60
2019-02-08T00:33:05.126Z,2.50
2019-02-08T00:35:35.566Z,2.50
2019-02-08T00:38:06.136Z,2.50
2019-02-08T00:40:36.812Z,2.60
2019-02-08T00:43:07.388Z,2.60
2019-02-08T00:45:37.980Z,2.60
2019-02-08T00:48:08.889Z,2.60
2019-02-08T00:50:39.543Z,2.70
2019-02-08T00:53:10.153Z,2.60
2019-02-08T00:55:42.154Z,2.60
2019-02-08T00:58:13.058Z,2.60
2019-02-08T01:00:43.624Z,2.60
2019-02-08T01:03:14.795Z,2.60
2019-02-08T01:05:45.769Z,2.70
2019-02-08T01:08:16.352Z,2.90
2019-02-08T01:10:47.070Z,2.90
2019-02-08T01:13:17.753Z,2.80
2019-02-08T01:15:51.633Z,2.80
2019-02-08T01:18:22.149Z,2.80
2019-02-08T01:20:52.723Z,2.80
2019-02-08T01:23:23.913Z,2.90
2019-02-08T01:25:54.485Z,2.90
2019-02-08T01:28:25.165Z,2.90
2019-02-08T01:30:55.730Z,2.80
2019-02-08T01:33:26.341Z,2.80
2019-02-08T01:35:56.953Z,2.80
2019-02-08T01:38:27.527Z,2.90
2019-02-08T01:40:58.515Z,2.90
2019-02-08T01:43:29.318Z,3.00
2019-02-08T01:46:00.020Z,2.90
2019-02-08T01:48:30.782Z,2.90
2019-02-08T01:51:01.380Z,2.90
2019-02-08T01:53:31.974Z,3.00
2019-02-08T01:56:03.057Z,2.90
2019-02-08T01:58:33.742Z,2.90
2019-02-08T02:01:05.208Z,2.90
2019-02-08T02:03:35.770Z,3.00
2019-02-08T02:06:06.431Z,3.00
2019-02-08T02:08:37.193Z,3.00
2019-02-08T02:11:07.875Z,3.00
2019-02-08T02:13:38.572Z,3.10
2019-02-08T02:16:09.070Z,3.10
2019-02-08T02:18:39.652Z,3.00
2019-02-08T02:21:10.211Z,3.00
2019-02-08T02:23:41.112Z,3.10
2019-02-08T02:26:11.695Z,3.10
2019-02-08T02:28:44.424Z,3.00
2019-02-08T02:31:14.940Z,3.10
2019-02-08T02:33:45.819Z,3.00
2019-02-08T02:36:18.432Z,3.00
2019-02-08T02:38:49.164Z,3.00
2019-02-08T02:41:19.632Z,3.00
2019-02-08T02:43:50.430Z,3.00
2019-02-08T02:46:20.995Z,3.00
2019-02-08T02:48:51.623Z,3.00
2019-02-08T02:51:22.721Z,3.00
2019-02-08T02:53:53.505Z,3.00
2019-02-08T02:56:24.082Z,3.10
2019-02-08T02:58:54.663Z,3.10
2019-02-08T03:01:25.500Z,3.00
2019-02-08T03:03:56.261Z,3.00
2019-02-08T03:06:26.907Z,3.00
2019-02-08T03:08:57.514Z,3.00
2019-02-08T03:11:28.482Z,2.90
2019-02-08T03:13:59.091Z,2.90
2019-02-08T03:16:29.681Z,3.00
2019-02-08T03:19:00.337Z,3.00
2019-02-08T03:21:31.037Z,3.10
2019-02-08T03:24:02.518Z,3.00
2019-02-08T03:26:33.084Z,2.90
2019-02-08T03:29:03.963Z,2.90
2019-02-08T03:31:34.434Z,2.90
2019-02-08T03:34:05.373Z,2.90
2019-02-08T03:36:37.705Z,2.90
2019-02-08T03:39:09.584Z,2.90
2019-02-08T03:41:40.176Z,2.90
2019-02-08T03:44:10.821Z,2.90
2019-02-08T03:46:41.353Z,2.90
2019-02-08T03:49:12.890Z,2.90
2019-02-08T03:51:43.418Z,3.00
2019-02-08T03:54:21.037Z,3.00
2019-02-08T03:56:48.029Z,2.90
2019-02-08T03:59:20.112Z,3.00
2019-02-08T04:01:50.728Z,3.00
2019-02-08T04:04:21.361Z,3.00
2019-02-08T04:06:51.815Z,3.00
2019-02-08T04:09:22.525Z,2.90
2019-02-08T04:11:53.043Z,2.90
2019-02-08T04:14:23.537Z,2.90
2019-02-08T04:16:54.212Z,2.90
2019-02-08T04:19:24.691Z,2.90
2019-02-08T04:21:55.286Z,2.90
2019-02-08T04:24:29.961Z,3.00
2019-02-08T04:26:57.927Z,3.00
2019-02-08T04:29:28.439Z,3.00
2019-02-08T04:31:58.990Z,3.00
2019-02-08T04:34:29.429Z,3.00
2019-02-08T04:36:59.973Z,2.90
2019-02-08T04:39:30.534Z,2.90
2019-02-08T04:42:00.989Z,2.90
2019-02-08T04:44:31.607Z,2.90
2019-02-08T04:47:02.243Z,3.00
2019-02-08T04:49:33.012Z,3.10
2019-02-08T04:52:03.680Z,3.10
2019-02-08T04:54:38.399Z,3.10
2019-02-08T04:57:07.026Z,3.20
2019-02-08T04:59:37.726Z,3.10
2019-02-08T05:02:08.541Z,3.10
2019-02-08T05:04:39.053Z,3.10
2019-02-08T05:07:09.993Z,3.00
2019-02-08T05:09:42.439Z,3.10
2019-02-08T05:12:12.744Z,3.10
2019-02-08T05:14:43.348Z,3.00
2019-02-08T05:17:13.918Z,3.00
2019-02-08T05:19:44.609Z,2.90
2019-02-08T05:22:15.140Z,2.90
2019-02-08T05:24:46.205Z,2.90
2019-02-08T05:27:16.755Z,2.80
2019-02-08T05:29:47.512Z,2.90
2019-02-08T05:32:18.619Z,2.90
2019-02-08T05:34:49.285Z,2.90
2019-02-08T05:37:20.053Z,2.90
2019-02-08T05:39:51.297Z,2.90
2019-02-08T05:42:22.097Z,2.80
2019-02-08T05:44:52.817Z,2.80
2019-02-08T05:47:23.586Z,2.80
2019-02-08T05:49:54.031Z,2.80
2019-02-08T05:52:24.657Z,2.80
2019-02-08T05:54:55.195Z,2.90
2019-02-08T05:57:26.147Z,2.90
2019-02-08T05:59:56.650Z,3.00
2019-02-08T06:02:27.243Z,2.90
2019-02-08T06:04:57.985Z,2.90
2019-02-08T06:07:28.513Z,3.00
2019-02-08T06:09:59.085Z,3.00
2019-02-08T06:12:29.635Z,3.00
2019-02-08T06:15:00.259Z,3.10
2019-02-08T06:17:30.936Z,3.10
2019-02-08T06:20:02.582Z,3.10
2019-02-08T06:22:33.175Z,3.00
2019-02-08T06:25:04.945Z,3.00
2019-02-08T06:27:36.797Z,3.00
2019-02-08T06:30:08.801Z,3.10
2019-02-08T06:32:39.424Z,3.10
2019-02-08T06:35:10.498Z,3.10
2019-02-08T06:37:44.560Z,3.10
2019-02-08T06:40:15.155Z,3.20
2019-02-08T06:42:45.779Z,3.20
2019-02-08T06:45:17.738Z,3.20
2019-02-08T06:47:48.292Z,3.20
2019-02-08T06:50:20.610Z,3.30
2019-02-08T06:52:51.192Z,3.40
2019-02-08T06:55:22.346Z,3.40
2019-02-08T06:58:11.244Z,3.40
2019-02-08T07:00:51.008Z,3.40
2019-02-08T07:03:32.225Z,3.40
2019-02-08T07:06:21.685Z,3.50
2019-02-08T07:09:11.155Z,3.40
2019-02-08T07:12:03.529Z,3.40
2019-02-08T07:14:58.971Z,3.50
2019-02-08T07:17:48.919Z,3.50
2019-02-08T07:20:41.559Z,3.40
2019-02-08T07:23:32.285Z,3.40
2019-02-08T07:26:12.413Z,3.40
2019-02-08T07:28:54.929Z,3.40
2019-02-08T07:31:43.811Z,3.30
2019-02-08T07:34:24.703Z,3.30
2019-02-08T07:37:09.897Z,3.30
2019-02-08T07:40:03.707Z,3.30
2019-02-08T07:42:56.354Z,3.30
2019-02-08T07:45:44.265Z,3.30
2019-02-08T07:48:37.678Z,3.40
2019-02-08T07:51:30.173Z,3.40
2019-02-08T07:54:38.301Z,3.40
2019-02-08T07:57:26.576Z,3.40
2019-02-08T08:00:16.180Z,3.40
2019-02-08T08:03:05.847Z,3.40
2019-02-08T08:06:11.041Z,3.40
2019-02-08T08:08:57.432Z,3.50
2019-02-08T08:11:37.149Z,3.60
2019-02-08T08:14:26.360Z,3.70
2019-02-08T08:17:29.677Z,3.80
2019-02-08T08:20:11.610Z,3.80
2019-02-08T08:23:10.705Z,3.80
2019-02-08T08:26:01.300Z,3.80
2019-02-08T08:28:56.858Z,3.90
2019-02-08T08:31:42.062Z,4.00
2019-02-08T08:34:25.120Z,4.00
2019-02-08T08:37:29.446Z,4.00
2019-02-08T08:40:44.517Z,4.00
2019-02-08T08:43:55.176Z,3.80
2019-02-08T08:47:02.738Z,3.90
2019-02-08T08:50:00.504Z,3.80
2019-02-08T08:53:33.737Z,3.80
2019-02-08T08:56:38.162Z,3.80
2019-02-08T08:59:52.629Z,3.80
2019-02-08T09:02:50.129Z,3.80
2019-02-08T09:05:57.767Z,3.90
2019-02-08T09:09:01.470Z,4.00
2019-02-08T09:11:58.057Z,4.10
2019-02-08T09:15:18.703Z,4.20
2019-02-08T09:18:43.907Z,4.30
2019-02-08T09:21:58.557Z,4.30
2019-02-08T09:25:15.019Z,4.20
2019-02-08T09:28:17.475Z,4.30
2019-02-08T09:31:27.391Z,4.50
2019-02-08T09:34:56.730Z,4.70
2019-02-08T09:38:04.227Z,4.60
2019-02-08T09:41:34.156Z,4.70
2019-02-08T09:44:34.954Z,4.60
2019-02-08T09:47:45.804Z,4.70
2019-02-08T09:51:09.518Z,4.70
2019-02-08T09:53:53.934Z,4.80
2019-02-08T09:57:00.371Z,4.90
2019-02-08T10:00:23.215Z,4.80
2019-02-08T10:03:30.329Z,4.70
2019-02-08T10:06:37.763Z,4.70
2019-02-08T10:10:07.490Z,4.80
2019-02-08T10:13:20.236Z,4.80
2019-02-08T10:16:37.936Z,4.90
2019-02-08T10:19:36.694Z,4.90
2019-02-08T10:23:15.475Z,4.90
2019-02-08T10:26:38.990Z,5.00
2019-02-08T10:29:55.570Z,5.20
2019-02-08T10:33:04.941Z,5.20
2019-02-08T10:36:11.833Z,5.40
2019-02-08T10:39:38.565Z,5.50
2019-02-08T10:42:56.022Z,5.70
2019-02-08T10:46:02.149Z,5.60
2019-02-08T10:49:09.480Z,5.50
2019-02-08T10:52:36.701Z,5.60
2019-02-08T10:55:52.887Z,5.80
2019-02-08T10:59:04.407Z,5.90
2019-02-08T11:02:11.261Z,6.10
2019-02-08T11:05:12.517Z,6.20
2019-02-08T11:08:23.863Z,6.20
2019-02-08T11:11:51.018Z,6.30
2019-02-08T11:15:17.247Z,6.30
2019-02-08T11:18:34.285Z,6.30
2019-02-08T11:21:05.768Z,6.30
2019-02-08T11:23:36.472Z,6.50
2019-02-08T11:26:08.360Z,6.70
2019-02-08T11:28:38.958Z,6.60
2019-02-08T11:31:09.600Z,6.50
2019-02-08T11:33:40.408Z,6.60
2019-02-08T11:36:11.400Z,6.70
2019-02-08T11:38:42.152Z,6.90
2019-02-08T11:41:13.219Z,6.90
2019-02-08T11:43:44.122Z,7.10
2019-02-08T11:46:14.728Z,7.30
2019-02-08T11:48:45.371Z,7.40
2019-02-08T11:51:15.942Z,7.50
2019-02-08T11:53:46.777Z,7.80
2019-02-08T11:56:17.373Z,8.00
2019-02-08T11:58:48.164Z,8.30
2019-02-08T12:01:18.812Z,8.80
2019-02-08T12:03:49.768Z,9.20
2019-02-08T12:06:20.285Z,9.60
2019-02-08T12:08:53.221Z,10.20
2019-02-08T12:11:23.790Z,10.70
2019-02-08T12:13:54.379Z,11.10
2019-02-08T12:16:24.921Z,11.00
2019-02-08T12:18:56.006Z,10.90
2019-02-08T12:21:26.487Z,11.30
2019-02-08T12:23:56.983Z,11.30
2019-02-08T12:26:27.541Z,11.80
2019-02-08T12:28:58.887Z,11.10
2019-02-08T12:31:29.354Z,11.10
2019-02-08T12:33:59.887Z,11.30
2019-02-08T12:36:30.763Z,11.70
2019-02-08T12:39:01.451Z,12.10
2019-02-08T12:41:33.650Z,12.30
2019-02-08T12:44:05.716Z,12.80
2019-02-08T12:46:36.245Z,13.30
2019-02-08T12:49:07.209Z,14.20
2019-02-08T12:51:37.808Z,15.10
2019-02-08T12:54:08.476Z,15.70
2019-02-08T12:56:45.399Z,16.40
2019-02-08T12:59:11.156Z,17.00
2019-02-08T13:01:41.704Z,16.20
2019-02-08T13:04:13.379Z,16.60
2019-02-08T13:06:44.142Z,17.10
2019-02-08T13:09:14.672Z,18.40
2019-02-08T13:11:45.324Z,18.60
2019-02-08T13:14:15.906Z,18.00
2019-02-08T13:16:46.560Z,18.20
2019-02-08T13:19:17.140Z,19.10
2019-02-08T13:21:47.798Z,19.40
2019-02-08T13:24:18.322Z,18.20
2019-02-08T13:26:52.969Z,16.90
2019-02-08T13:29:21.414Z,16.10
2019-02-08T13:31:51.921Z,13.80
2019-02-08T13:34:51.679Z,13.10
2019-02-08T13:37:22.399Z,12.60
2019-02-08T13:39:53.005Z,12.40
2019-02-08T13:42:25.942Z,12.00
2019-02-08T13:44:56.561Z,11.00
2019-02-08T13:47:27.046Z,10.90
2019-02-08T13:49:57.825Z,10.50
2019-02-08T13:52:28.450Z,10.10
2019-02-08T13:55:00.283Z,10.00
2019-02-08T13:57:30.862Z,10.10
2019-02-08T14:00:01.470Z,9.70
2019-02-08T14:02:32.344Z,9.60
2019-02-08T14:05:02.935Z,9.30
2019-02-08T14:07:33.519Z,9.00
2019-02-08T14:10:06.115Z,8.80
2019-02-08T14:12:36.872Z,8.70
2019-02-08T14:15:08.069Z,8.50
2019-02-08T14:17:38.863Z,8.50
2019-02-08T14:20:12.211Z,8.40
2019-02-08T14:22:43.008Z,8.20
2019-02-08T14:25:14.424Z,8.10
2019-02-08T14:27:44.944Z,7.90
2019-02-08T14:30:19.222Z,7.90
2019-02-08T14:32:49.938Z,7.90
2019-02-08T14:35:20.464Z,7.80
2019-02-08T14:37:51.131Z,7.80
2019-02-08T14:40:22.820Z,7.90
2019-02-08T14:42:54.369Z,7.90
2019-02-08T14:45:24.838Z,7.90
2019-02-08T14:47:55.349Z,7.90
2019-02-08T14:50:26.348Z,7.80
2019-02-08T14:52:57.319Z,7.70
2019-02-08T14:55:28.214Z,7.70
2019-02-08T14:57:59.055Z,7.70
2019-02-08T15:00:29.726Z,7.60
2019-02-08T15:03:00.290Z,7.40
2019-02-08T15:05:30.894Z,7.30
2019-02-08T15:08:01.447Z,7.30
2019-02-08T15:10:43.645Z,7.20
2019-02-08T15:13:14.565Z,7.20
2019-02-08T15:15:45.217Z,7.10
2019-02-08T15:18:16.185Z,7.00
2019-02-08T15:20:46.773Z,6.90
2019-02-08T15:23:17.327Z,7.00
2019-02-08T15:25:47.769Z,7.00
2019-02-08T15:28:18.445Z,6.80
2019-02-08T15:30:49.005Z,6.70
2019-02-08T15:33:19.545Z,6.60
2019-02-08T15:35:50.138Z,6.50
2019-02-08T15:38:20.519Z,6.40
2019-02-08T15:40:54.171Z,6.40
2019-02-08T15:43:26.531Z,6.30
2019-02-08T15:46:02.417Z,6.30
2019-02-08T15:48:32.898Z,6.20
2019-02-08T15:51:08.530Z,6.20
2019-02-08T15:53:39.604Z,6.20
2019-02-08T15:56:13.348Z,6.10
2019-02-08T15:58:43.867Z,6.00
2019-02-08T16:01:14.648Z,6.00
2019-02-08T16:03:45.311Z,6.00
2019-02-08T16:06:15.946Z,6.00
2019-02-08T16:08:49.074Z,5.90
2019-02-08T16:11:19.945Z,5.90
2019-02-08T16:13:50.932Z,5.80
2019-02-08T16:16:22.718Z,5.80
2019-02-08T16:18:53.212Z,5.80
2019-02-08T16:21:26.710Z,5.90
2019-02-08T16:23:57.698Z,5.90
2019-02-08T16:26:28.461Z,5.90
2019-02-08T16:28:59.335Z,5.80
2019-02-08T16:31:29.931Z,5.70
2019-02-08T16:34:00.507Z,5.70
2019-02-08T16:36:31.230Z,5.80
2019-02-08T16:39:02.126Z,5.70
2019-02-08T16:41:34.292Z,5.70
2019-02-08T16:44:08.121Z,5.60
2019-02-08T16:46:38.805Z,5.60
2019-02-08T16:49:10.975Z,5.50
2019-02-08T16:51:42.173Z,5.50
2019-02-08T16:54:18.129Z,5.50
2019-02-08T16:56:48.839Z,5.50
2019-02-08T16:59:23.887Z,5.50
2019-02-08T17:01:54.516Z,5.40
2019-02-08T17:04:25.197Z,5.30
2019-02-08T17:06:55.885Z,5.30
2019-02-08T17:09:26.519Z,5.40
2019-02-08T17:11:57.676Z,5.40
2019-02-08T17:14:28.635Z,5.40
2019-02-08T17:16:59.873Z,5.30
2019-02-08T17:19:30.869Z,5.20
2019-02-08T17:22:01.829Z,5.20
2019-02-08T17:24:33.227Z,5.20
2019-02-08T17:27:04.266Z,5.20
2019-02-08T17:29:35.460Z,5.20
2019-02-08T17:32:06.241Z,5.20
2019-02-08T17:34:37.229Z,5.20
2019-02-08T17:37:09.047Z,5.10
2019-02-08T17:39:39.882Z,5.00
2019-02-08T17:42:14.165Z,5.10
2019-02-08T17:44:46.333Z,5.00
2019-02-08T17:47:17.698Z,5.10
2019-02-08T17:49:49.357Z,5.00
2019-02-08T17:52:20.243Z,5.00
2019-02-08T17:58:18.034Z,5.00
2019-02-08T18:00:54.874Z,4.90
2019-02-08T18:03:25.838Z,4.90
2019-02-08T18:05:56.435Z,4.90
2019-02-08T18:08:27.806Z,4.90
2019-02-08T18:10:58.585Z,4.80
2019-02-08T18:13:29.322Z,4.80
2019-02-08T18:16:00.155Z,4.70
2019-02-08T18:18:30.898Z,4.90
2019-02-08T18:21:04.635Z,4.90
2019-02-08T18:23:35.575Z,4.80
2019-02-08T18:26:07.613Z,4.80
2019-02-08T18:28:38.472Z,4.70
2019-02-08T18:31:09.262Z,4.70
2019-02-08T18:33:40.333Z,4.80
2019-02-08T18:36:12.247Z,4.80
2019-02-08T18:38:43.163Z,4.70
2019-02-08T18:41:14.399Z,4.70
2019-02-08T18:43:45.126Z,4.60
2019-02-08T18:46:15.949Z,4.70
2019-02-08T18:49:10.153Z,4.60
2019-02-08T18:51:41.433Z,4.70
2019-02-08T18:54:11.963Z,4.70
2019-02-08T18:56:43.339Z,4.70
2019-02-08T18:59:14.075Z,4.60
2019-02-08T19:01:45.354Z,4.60
2019-02-08T19:04:16.333Z,4.60
2019-02-08T19:06:47.121Z,4.60
2019-02-08T19:09:17.978Z,4.60
2019-02-08T19:11:49.005Z,4.70
2019-02-08T19:14:20.125Z,4.60
2019-02-08T19:16:51.688Z,4.50
2019-02-08T19:19:22.854Z,4.50
2019-02-08T19:21:53.960Z,4.50
2019-02-08T19:24:26.863Z,4.50
2019-02-08T19:26:57.794Z,4.40
2019-02-08T19:29:28.426Z,4.40
2019-02-08T19:31:59.166Z,4.50
2019-02-08T19:34:29.664Z,4.50
2019-02-08T19:37:00.219Z,4.50
2019-02-08T19:39:33.894Z,4.50
2019-02-08T19:42:06.373Z,4.50
2019-02-08T19:44:37.582Z,4.50
2019-02-08T19:47:08.349Z,4.50
2019-02-08T19:49:41.472Z,4.40
2019-02-08T19:52:13.959Z,4.30
2019-02-08T19:54:44.588Z,4.30
2019-02-08T19:57:15.200Z,4.30
2019-02-08T19:59:45.919Z,4.30
2019-02-08T20:02:17.101Z,4.30
2019-02-08T20:04:49.697Z,4.30
2019-02-08T20:07:24.408Z,4.30
2019-02-08T20:09:58.821Z,4.30
2019-02-08T20:12:29.711Z,4.20
2019-02-08T20:15:00.519Z,4.30
2019-02-08T20:17:31.637Z,4.30
2019-02-08T20:20:02.343Z,4.30
2019-02-08T20:22:32.879Z,4.30
2019-02-08T20:25:03.667Z,4.30
2019-02-08T20:27:34.459Z,4.20
2019-02-08T20:30:08.189Z,4.20
2019-02-08T20:32:39.025Z,4.20
2019-02-08T20:35:12.638Z,4.30
2019-02-08T20:37:45.181Z,4.30
2019-02-08T20:40:23.953Z,4.30
2019-02-08T20:42:55.041Z,4.40
2019-02-08T20:45:27.794Z,4.40
2019-02-08T20:48:02.052Z,4.40
2019-02-08T20:50:34.615Z,4.50
2019-02-08T20:53:05.866Z,4.40
2019-02-08T20:55:36.762Z,4.30
2019-02-08T20:58:09.916Z,4.40
2019-02-08T21:00:42.905Z,4.40
2019-02-08T21:03:15.602Z,4.20
2019-02-08T21:05:47.697Z,4.10
2019-02-08T21:08:20.432Z,4.10
2019-02-08T21:10:52.358Z,4.10
2019-02-08T21:13:23.584Z,4.00
2019-02-08T21:15:54.919Z,4.00
2019-02-08T21:18:25.686Z,4.00
2019-02-08T21:20:58.200Z,3.80
2019-02-08T21:23:29.203Z,3.70
2019-02-08T21:26:08.991Z,3.70
2019-02-08T21:28:41.205Z,3.60
2019-02-08T21:31:13.040Z,3.70
2019-02-08T21:33:43.702Z,3.60
2019-02-08T21:36:17.441Z,3.60
2019-02-08T21:38:48.115Z,3.60
2019-02-08T21:41:19.625Z,3.60
2019-02-08T21:43:50.331Z,3.60
2019-02-08T21:46:21.427Z,3.50
2019-02-08T21:48:52.536Z,3.40
2019-02-08T21:51:23.173Z,3.40
2019-02-08T21:53:53.745Z,3.50
2019-02-08T21:56:24.271Z,3.40
2019-02-08T21:58:55.005Z,3.40
2019-02-08T22:01:25.565Z,3.40
2019-02-08T22:04:05.893Z,3.40
2019-02-08T22:06:36.883Z,3.30
2019-02-08T22:09:09.186Z,3.50
2019-02-08T22:11:41.659Z,3.50
2019-02-08T22:14:15.512Z,3.60
2019-02-08T22:16:46.388Z,3.70
2019-02-08T22:19:17.240Z,3.70
2019-02-08T22:21:50.124Z,3.60
2019-02-08T22:24:21.015Z,3.60
2019-02-08T22:26:52.015Z,3.50
2019-02-08T22:29:22.674Z,3.50
2019-02-08T22:31:53.466Z,3.40
2019-02-08T22:34:24.530Z,3.40
2019-02-08T22:36:55.089Z,3.40
2019-02-08T22:39:25.698Z,3.40
2019-02-08T22:41:56.426Z,3.30
2019-02-08T22:44:38.114Z,3.30
2019-02-08T22:47:08.914Z,3.30
2019-02-08T22:49:39.794Z,3.40
2019-02-08T22:52:10.284Z,3.40
2019-02-08T22:54:40.914Z,3.40
2019-02-08T22:57:11.630Z,3.30
2019-02-08T22:59:43.753Z,3.40
2019-02-08T23:02:14.517Z,3.40
2019-02-08T23:04:45.238Z,3.40
2019-02-08T23:07:15.928Z,3.50
2019-02-08T23:09:46.894Z,3.50
2019-02-08T23:12:17.631Z,3.40
2019-02-08T23:14:48.621Z,3.50
2019-02-08T23:17:19.137Z,3.40
2019-02-08T23:19:49.803Z,3.40
2019-02-08T23:22:20.395Z,3.40
2019-02-08T23:24:51.264Z,3.20
2019-02-08T23:27:21.739Z,3.30
2019-02-08T23:29:52.521Z,3.20
2019-02-08T23:32:23.180Z,3.20
2019-02-08T23:34:53.737Z,3.10
2019-02-08T23:37:25.964Z,3.00
2019-02-08T23:39:56.669Z,2.90
2019-02-08T23:42:27.237Z,2.80
2019-02-08T23:44:57.924Z,2.70
2019-02-08T23:47:28.700Z,2.60
2019-02-08T23:49:59.579Z,2.50
2019-02-08T23:52:30.169Z,2.60
2019-02-08T23:55:00.669Z,2.60
2019-02-08T23:57:32.353Z,2.60
